Time,TemperatureF,DewpointF,PressureIn,WindDirection,WindDirectionDegrees,WindSpeedMPH,WindSpeedGustMPH,Humidity,HourlyPrecipIn,Conditions,Clouds,dailyrainin,SolarRadiationWatts/m^2,SoftwareType,DateUTC
2013-06-14 07:11:00,31.0,29.0,-100.00,ENE,59,0.0,2.0,92,-99.99,,,0.00,43.000000,,2013-06-14 14:11:00,
2013-06-14 08:11:00,49.0,32.0,-100.00,ENE,62,0.0,2.0,52,-99.99,,,0.00,312.000000,,2013-06-14 15:11:00,
2013-06-14 08:51:00,56.0,25.0,-100.00,NNE,24,3.0,6.0,30,0.00,,,-99.99,518.000000,,2013-06-14 15:51:00,
2013-06-14 09:22:00,56.0,25.0,-100.00,NNE,24,3.0,6.0,30,0.00,,,-99.99,518.000000,,2013-06-14 16:22:00,
2013-06-14 09:32:00,56.0,25.0,-100.00,NNE,24,3.0,6.0,30,0.00,,,-99.99,518.000000,,2013-06-14 16:32:00,
2013-06-14 09:43:00,56.0,25.0,-100.00,NNE,24,3.0,6.0,30,0.00,,,-99.99,518.000000,,2013-06-14 16:43:00,
2013-06-14 09:51:00,59.0,26.0,-100.00,North,357,3.0,6.0,28,0.00,,,0.00,724.000000,,2013-06-14 16:51:00,
2013-06-14 10:11:00,59.0,26.0,-100.00,North,357,3.0,6.0,28,0.00,,,0.00,724.000000,,2013-06-14 17:11:00,
2013-06-14 10:22:00,59.0,26.0,-100.00,North,357,3.0,6.0,28,0.00,,,0.00,724.000000,,2013-06-14 17:22:00,
2013-06-14 10:34:00,59.0,26.0,-100.00,North,357,3.0,6.0,28,0.00,,,0.00,724.000000,,2013-06-14 17:34:00,
2013-06-14 10:43:00,59.0,26.0,-100.00,North,357,3.0,6.0,28,0.00,,,0.00,724.000000,,2013-06-14 17:43:00,
2013-06-14 10:51:00,62.0,28.0,-100.00,North,1,4.0,7.0,27,0.00,,,0.00,879.000000,,2013-06-14 17:51:00,
2013-06-14 11:22:00,62.0,28.0,-100.00,North,1,4.0,7.0,27,0.00,,,0.00,879.000000,,2013-06-14 18:22:00,
2013-06-14 11:32:00,62.0,28.0,-100.00,North,1,4.0,7.0,27,0.00,,,0.00,879.000000,,2013-06-14 18:32:00,
2013-06-14 11:42:00,62.0,28.0,-100.00,North,1,4.0,7.0,27,0.00,,,0.00,879.000000,,2013-06-14 18:42:00,
2013-06-14 11:51:00,63.0,28.0,-100.00,North,7,5.0,9.0,26,0.00,,,0.00,974.000000,,2013-06-14 18:51:00,
2013-06-14 12:21:00,63.0,28.0,-100.00,North,7,5.0,9.0,26,0.00,,,0.00,974.000000,,2013-06-14 19:21:00,
2013-06-14 12:32:00,63.0,28.0,-100.00,North,7,5.0,9.0,26,0.00,,,0.00,974.000000,,2013-06-14 19:32:00,
2013-06-14 12:43:00,63.0,28.0,-100.00,North,7,5.0,9.0,26,0.00,,,0.00,974.000000,,2013-06-14 19:43:00,
2013-06-14 12:51:00,65.0,28.0,-100.00,NNE,16,5.0,10.0,25,0.00,,,-99.99,975.000000,,2013-06-14 19:51:00,
2013-06-14 13:11:00,65.0,28.0,-100.00,NNE,16,5.0,10.0,25,0.00,,,-99.99,975.000000,,2013-06-14 20:11:00,
2013-06-14 13:22:00,65.0,28.0,-100.00,NNE,16,5.0,10.0,25,0.00,,,-99.99,975.000000,,2013-06-14 20:22:00,
2013-06-14 13:33:00,65.0,28.0,-100.00,NNE,16,5.0,10.0,25,0.00,,,-99.99,975.000000,,2013-06-14 20:33:00,
2013-06-14 13:43:00,65.0,28.0,-100.00,NNE,16,5.0,10.0,25,0.00,,,-99.99,975.000000,,2013-06-14 20:43:00,
2013-06-14 13:51:00,68.0,29.0,-100.00,NNW,343,5.0,10.0,23,0.00,,,0.00,1027.000000,,2013-06-14 20:51:00,
2013-06-14 14:11:00,68.0,29.0,-100.00,NNW,343,5.0,10.0,23,0.00,,,0.00,1027.000000,,2013-06-14 21:11:00,
2013-06-14 14:22:00,68.0,29.0,-100.00,NNW,343,5.0,10.0,23,0.00,,,0.00,1027.000000,,2013-06-14 21:22:00,
2013-06-14 14:34:00,68.0,29.0,-100.00,NNW,343,5.0,10.0,23,0.00,,,0.00,1027.000000,,2013-06-14 21:34:00,
2013-06-14 14:42:00,68.0,29.0,-100.00,NNW,343,5.0,10.0,23,0.00,,,0.00,1027.000000,,2013-06-14 21:42:00,
2013-06-14 14:51:00,68.0,29.0,-100.00,NNE,22,6.0,10.0,23,0.00,,,0.00,927.000000,,2013-06-14 21:51:00,
2013-06-14 15:22:00,68.0,29.0,-100.00,NNE,22,6.0,10.0,23,0.00,,,0.00,927.000000,,2013-06-14 22:22:00,
2013-06-14 15:33:00,68.0,29.0,-100.00,NNE,22,6.0,10.0,23,0.00,,,0.00,927.000000,,2013-06-14 22:33:00,
2013-06-14 15:43:00,68.0,29.0,-100.00,NNE,22,6.0,10.0,23,0.00,,,0.00,927.000000,,2013-06-14 22:43:00,
2013-06-14 15:51:00,71.0,28.0,-100.00,North,1,4.0,8.0,20,0.00,,,0.00,868.000000,,2013-06-14 22:51:00,
2013-06-14 16:22:00,71.0,28.0,-100.00,North,1,4.0,8.0,20,0.00,,,0.00,868.000000,,2013-06-14 23:22:00,
2013-06-14 16:33:00,71.0,28.0,-100.00,North,1,4.0,8.0,20,0.00,,,0.00,868.000000,,2013-06-14 23:33:00,
2013-06-14 16:43:00,71.0,28.0,-100.00,North,1,4.0,8.0,20,0.00,,,0.00,868.000000,,2013-06-14 23:43:00,
2013-06-14 16:51:00,69.0,27.0,-100.00,North,359,4.0,9.0,21,0.00,,,0.00,646.000000,,2013-06-14 23:51:00,
2013-06-14 17:11:00,69.0,27.0,-100.00,North,359,4.0,9.0,21,0.00,,,0.00,646.000000,,2013-06-15 00:11:00,
2013-06-14 17:22:00,69.0,27.0,-100.00,North,359,4.0,9.0,21,0.00,,,0.00,646.000000,,2013-06-15 00:22:00,
2013-06-14 17:33:00,69.0,27.0,-100.00,North,359,4.0,9.0,21,0.00,,,0.00,646.000000,,2013-06-15 00:33:00,
2013-06-14 17:43:00,69.0,27.0,-100.00,North,359,4.0,9.0,21,0.00,,,0.00,646.000000,,2013-06-15 00:43:00,
2013-06-14 17:51:00,69.0,29.0,-100.00,NNW,337,3.0,7.0,22,0.00,,,0.00,444.000000,,2013-06-15 00:51:00,
2013-06-14 18:11:00,69.0,29.0,-100.00,NNW,337,3.0,7.0,22,0.00,,,0.00,444.000000,,2013-06-15 01:11:00,
2013-06-14 18:22:00,69.0,29.0,-100.00,NNW,337,3.0,7.0,22,0.00,,,0.00,444.000000,,2013-06-15 01:22:00,
2013-06-14 18:33:00,69.0,29.0,-100.00,NNW,337,3.0,7.0,22,0.00,,,0.00,444.000000,,2013-06-15 01:33:00,
2013-06-14 18:43:00,69.0,29.0,-100.00,NNW,337,3.0,7.0,22,0.00,,,0.00,444.000000,,2013-06-15 01:43:00,
2013-06-14 18:51:00,67.0,29.0,-100.00,WNW,282,1.0,5.0,24,0.00,,,0.00,210.000000,,2013-06-15 01:51:00,
2013-06-14 19:22:00,67.0,29.0,-100.00,WNW,282,1.0,5.0,24,0.00,,,0.00,210.000000,,2013-06-15 02:22:00,
2013-06-14 19:33:00,67.0,29.0,-100.00,WNW,282,1.0,5.0,24,0.00,,,0.00,210.000000,,2013-06-15 02:33:00,
2013-06-14 19:43:00,67.0,29.0,-100.00,WNW,282,1.0,5.0,24,0.00,,,0.00,210.000000,,2013-06-15 02:43:00,
2013-06-14 22:12:00,46.0,40.0,-100.00,NNW,333,0.0,2.0,80,0.00,,,0.00,1.000000,,2013-06-15 05:12:00,
2013-06-14 23:12:00,43.0,39.0,-100.00,NW,321,0.0,1.0,87,-99.99,,,0.00,1.000000,,2013-06-15 06:12:00,